map of RLG home
RLG - Airport
Location
City:  Laage, Mecklenburg-Vorpommern, Germany
Name:Rostock-Laage AB
ICAO:ETNL
IATA:RLG

Details
Type:Airport (Flugplatz, Airfield)
Use:Military
Latitude:5355'05"N (53.918167)
Longitude:1216'42"E (12.278333)
Elevation:138 ft (42 m)
Variation:3.86E (WMM2015v2 magnetic declination)
0.18 annual change
Runways:1
Longest:8202 × 148 ft (2500 × 45 m), paved

Time
Time Zone:UTC+1 (DST+2)
Local Time:

Weather
METAR:ETNL 041333Z 20008KT 9999 BKN150 03/M01 Q1024 BLU BLU

Related Locations
Nearby:
Farthest:CHT: 11629 mi / 18716 km
Waitangi [Tuuta], CIT, NZ

Find:

   beyond  
but within

Other Information
Maps:
NOTAMs:
Links:
Sources:

  
  • flag of Germany
  • flag of Mecklenburg-Vorpommern
  

Sectional Chart

Flight Planning
at skyvector.com

Satellite Image

Google Maps Satellite view

 

Copyright © 2004-2019 Karl L. Swartz. All rights reserved.
The Great Circle Mapper name and logo are trademarks of the Great Circle Mapper.
All other trademarks mentioned herein belong to their respective owners.
Please see credits for attibutions and further copyright information.

  Follow gcmap on Facebook Follow gcmap on Twitter GCmap on LinkedIn

hCard Microformat

Geo Microformat